Time;durP1;ratioP1;P1;durP2;ratioP2;P2;SDS_P1;SDS_P2;PMS_P1;PMS_P2;Temp;Humidity;BMP_temperature;BMP_pressure;BME280_temperature;BME280_humidity;BME280_pressure;Samples;Min_cycle;Max_cycle;Signal;HPM_P1;HPM_P2
2022/02/08 00:02:15;;;;;;;6.93;2.33;;;3.60;99.90;;;;;;5094556;28;20204;-61
2022/02/08 00:04:44;;;;;;;8.57;2.30;;;3.60;99.90;;;;;;5094641;28;20208;-62
2022/02/08 00:07:11;;;;;;;6.47;2.10;;;3.60;99.90;;;;;;5093530;28;20228;-61
2022/02/08 00:09:38;;;;;;;5.63;2.20;;;3.50;99.90;;;;;;5093635;28;20227;-61
2022/02/08 00:12:06;;;;;;;6.47;1.90;;;3.50;99.90;;;;;;5093818;28;20211;-61
2022/02/08 00:14:33;;;;;;;6.00;2.27;;;3.60;99.90;;;;;;5093415;28;20212;-61
2022/02/08 00:17:00;;;;;;;6.83;1.93;;;3.50;99.90;;;;;;5092814;28;20216;-62
2022/02/08 00:19:27;;;;;;;7.23;2.37;;;3.50;99.90;;;;;;5093364;28;20208;-62
2022/02/08 00:21:55;;;;;;;8.37;1.83;;;3.50;99.90;;;;;;5093547;28;20230;-62
2022/02/08 00:24:21;;;;;;;8.03;2.30;;;3.60;99.90;;;;;;5093196;28;20208;-62
2022/02/08 00:26:48;;;;;;;8.10;2.33;;;3.40;99.90;;;;;;5092768;28;20229;-63
2022/02/08 00:29:15;;;;;;;12.87;2.53;;;3.50;99.90;;;;;;5093314;28;20236;-61
2022/02/08 00:31:42;;;;;;;6.93;2.40;;;3.40;99.90;;;;;;5093154;28;20260;-62
2022/02/08 00:34:08;;;;;;;8.13;2.80;;;3.40;99.90;;;;;;5092820;28;20691;-61
2022/02/08 00:36:35;;;;;;;6.93;2.50;;;3.40;99.90;;;;;;5092620;28;20707;-62
2022/02/08 00:39:06;;;;;;;7.60;2.43;;;3.50;99.90;;;;;;5092997;28;20207;-61
2022/02/08 00:41:34;;;;;;;7.87;2.47;;;3.60;99.90;;;;;;5093078;28;20208;-62
2022/02/08 00:44:05;;;;;;;7.60;2.37;;;3.80;99.90;;;;;;5092979;28;20208;-61
2022/02/08 00:46:34;;;;;;;9.77;3.33;;;3.90;99.90;;;;;;5094550;28;20236;-61
2022/02/08 00:49:02;;;;;;;7.27;2.13;;;4.10;99.90;;;;;;5094421;28;20211;-60
2022/02/08 00:51:39;;;;;;;6.80;2.27;;;4.20;99.90;;;;;;5093974;28;20237;-60
2022/02/08 00:54:07;;;;;;;6.20;2.90;;;4.30;99.90;;;;;;5093483;28;20231;-60
2022/02/08 00:56:34;;;;;;;9.90;2.77;;;4.40;99.90;;;;;;5092871;28;20647;-62
2022/02/08 00:59:01;;;;;;;7.70;2.37;;;4.50;99.90;;;;;;5093028;28;20215;-63
2022/02/08 01:01:30;;;;;;;6.73;2.20;;;4.60;99.90;;;;;;5093114;28;20212;-63
2022/02/08 01:03:57;;;;;;;8.87;2.27;;;4.70;99.90;;;;;;5092656;28;20239;-62
2022/02/08 01:06:24;;;;;;;6.60;2.40;;;4.70;99.90;;;;;;5091955;28;20696;-61
2022/02/08 01:08:52;;;;;;;7.90;2.80;;;4.70;99.90;;;;;;5092228;28;20575;-62
2022/02/08 01:11:22;;;;;;;5.57;2.13;;;4.80;99.90;;;;;;5092359;28;20674;-62
2022/02/08 01:13:48;;;;;;;8.30;2.30;;;4.80;99.90;;;;;;5092571;28;20210;-62
2022/02/08 01:16:15;;;;;;;4.93;2.13;;;4.80;99.90;;;;;;5092084;28;20220;-62
2022/02/08 01:18:44;;;;;;;5.90;2.20;;;4.80;99.90;;;;;;5092233;28;20208;-62
2022/02/08 01:21:11;;;;;;;5.53;2.00;;;4.80;99.90;;;;;;5092199;28;20669;-62
2022/02/08 01:23:38;;;;;;;4.23;1.83;;;4.80;99.90;;;;;;5092062;28;20208;-62
2022/02/08 01:26:11;;;;;;;6.80;2.10;;;4.80;99.90;;;;;;5091854;28;20220;-62
2022/02/08 01:28:47;;;;;;;6.30;2.10;;;4.70;99.90;;;;;;5092045;28;20691;-62
2022/02/08 01:31:16;;;;;;;5.97;2.50;;;4.70;99.90;;;;;;5092182;28;20253;-62
2022/02/08 01:36:45;;;;;;;7.63;2.47;;;4.50;99.90;;;;;;5091833;28;20215;-61
2022/02/08 01:39:19;;;;;;;6.87;2.30;;;4.40;99.90;;;;;;5092098;28;20199;-62
2022/02/08 01:44:58;;;;;;;11.37;2.60;;;4.30;99.90;;;;;;5049313;28;20201;-61
2022/02/08 01:47:29;;;;;;;8.87;2.10;;;4.20;99.90;;;;;;5085210;28;20232;-61
2022/02/08 01:50:07;;;;;;;5.47;1.97;;;4.10;99.90;;;;;;5091895;28;20295;-61
2022/02/08 01:52:34;;;;;;;5.60;1.90;;;4.00;99.90;;;;;;5091754;28;20247;-61
2022/02/08 01:55:00;;;;;;;5.53;2.10;;;4.00;99.90;;;;;;5092136;28;20216;-61
2022/02/08 01:57:27;;;;;;;8.67;2.60;;;4.00;99.90;;;;;;5091457;28;20235;-62
2022/02/08 01:59:55;;;;;;;7.67;2.40;;;4.00;99.90;;;;;;5092055;28;20208;-61
2022/02/08 02:02:22;;;;;;;4.57;1.90;;;4.00;99.90;;;;;;5092107;28;20200;-61
2022/02/08 02:04:49;;;;;;;8.50;2.47;;;4.00;99.90;;;;;;5092022;28;20227;-61
2022/02/08 02:07:16;;;;;;;4.80;2.40;;;4.00;99.90;;;;;;5091361;28;20692;-61
2022/02/08 02:09:45;;;;;;;4.97;1.53;;;4.10;99.90;;;;;;5093238;28;20683;-61
2022/02/08 02:12:12;;;;;;;6.97;2.30;;;4.10;99.90;;;;;;5095878;28;20239;-62
2022/02/08 02:14:40;;;;;;;5.77;1.80;;;4.10;99.90;;;;;;5096416;28;20204;-61
2022/02/08 02:17:09;;;;;;;5.63;2.73;;;4.20;99.90;;;;;;5096261;28;20314;-61
2022/02/08 02:19:36;;;;;;;9.20;2.10;;;4.30;99.90;;;;;;5096004;28;20353;-61
2022/02/08 02:22:05;;;;;;;7.57;1.83;;;4.30;99.90;;;;;;5095662;28;20200;-61
2022/02/08 02:24:33;;;;;;;7.43;1.97;;;4.40;99.90;;;;;;5095594;28;20212;-61
2022/02/08 02:27:00;;;;;;;7.43;1.80;;;4.40;99.90;;;;;;5094773;28;20718;-61
2022/02/08 02:29:29;;;;;;;8.37;1.87;;;4.40;99.90;;;;;;5095106;28;20240;-61
2022/02/08 02:31:56;;;;;;;3.67;1.80;;;4.50;99.90;;;;;;5095571;28;20200;-62
2022/02/08 02:34:24;;;;;;;5.87;2.03;;;4.50;99.90;;;;;;5094872;28;20212;-61
2022/02/08 02:36:53;;;;;;;8.43;1.90;;;4.60;99.90;;;;;;5094949;28;20661;-61
2022/02/08 02:39:22;;;;;;;6.33;1.80;;;4.60;99.90;;;;;;5095221;28;20211;-61
2022/02/08 02:41:51;;;;;;;6.70;1.97;;;4.70;99.90;;;;;;5095304;28;20209;-61
2022/02/08 02:44:19;;;;;;;7.17;2.13;;;4.70;99.90;;;;;;5095344;28;20211;-61
2022/02/08 02:46:47;;;;;;;6.30;2.03;;;4.70;99.90;;;;;;5094420;28;20624;-61
2022/02/08 02:49:14;;;;;;;5.63;1.77;;;4.70;99.90;;;;;;5095162;28;20204;-61
2022/02/08 02:51:41;;;;;;;8.13;2.30;;;4.60;99.90;;;;;;5095072;28;20208;-61
2022/02/08 02:54:14;;;;;;;4.73;1.90;;;4.70;99.90;;;;;;5094900;28;20211;-61
2022/02/08 02:56:41;;;;;;;6.73;1.87;;;4.70;99.90;;;;;;5110597;22;20265;-58
2022/02/08 02:59:09;;;;;;;7.83;1.90;;;4.80;99.90;;;;;;5074037;28;20205;-58
2022/02/08 03:01:41;;;;;;;9.13;2.10;;;4.90;99.90;;;;;;5074610;28;20223;-59
2022/02/08 03:04:25;;;;;;;6.50;2.20;;;5.00;99.90;;;;;;5074740;28;20204;-59
2022/02/08 03:18:10;;;;;;;7.77;2.27;;;5.60;99.90;;;;;;5073726;28;20339;-58
2022/02/08 03:20:37;;;;;;;5.27;1.77;;;5.60;99.90;;;;;;5073405;28;20205;-58
2022/02/08 03:23:04;;;;;;;10.13;2.43;;;5.60;99.90;;;;;;5073744;28;20684;-58
2022/02/08 03:25:31;;;;;;;6.67;2.00;;;5.70;99.90;;;;;;5073887;28;20212;-60
2022/02/08 03:27:57;;;;;;;9.00;1.90;;;5.80;99.90;;;;;;5073542;28;20237;-58
2022/02/08 03:30:26;;;;;;;9.13;2.13;;;5.90;99.90;;;;;;5073695;28;20292;-58
2022/02/08 03:32:53;;;;;;;3.67;2.13;;;5.90;99.90;;;;;;5074001;28;20201;-59
2022/02/08 03:35:20;;;;;;;7.70;1.80;;;5.80;99.90;;;;;;5073898;28;20664;-59
2022/02/08 03:37:55;;;;;;;6.23;2.00;;;5.80;99.90;;;;;;5073418;28;20229;-58
2022/02/08 03:40:36;;;;;;;6.53;2.20;;;5.80;99.90;;;;;;5073671;28;20204;-60
2022/02/08 03:43:13;;;;;;;5.30;1.90;;;5.70;99.90;;;;;;5073419;28;20246;-58
2022/02/08 03:45:43;;;;;;;6.50;1.93;;;5.70;99.90;;;;;;5073293;28;20209;-58
2022/02/08 03:48:11;;;;;;;5.17;2.23;;;5.70;99.90;;;;;;5073622;28;20244;-58
2022/02/08 03:50:37;;;;;;;6.67;2.20;;;5.80;99.90;;;;;;5073352;28;20213;-59
2022/02/08 03:53:04;;;;;;;8.47;2.27;;;5.80;99.90;;;;;;5073305;28;20204;-59
2022/02/08 03:55:31;;;;;;;11.87;2.50;;;5.90;99.90;;;;;;5073156;28;20694;-59
2022/02/08 03:57:57;;;;;;;5.60;2.00;;;6.00;99.90;;;;;;5072625;28;20225;-59
2022/02/08 04:00:27;;;;;;;5.60;2.27;;;6.00;99.90;;;;;;5073271;28;20205;-59
2022/02/08 04:02:57;;;;;;;7.00;2.37;;;6.10;99.90;;;;;;5073158;28;20558;-59
2022/02/08 04:05:28;;;;;;;4.77;2.00;;;6.20;99.90;;;;;;5073113;28;20564;-59
2022/02/08 04:07:58;;;;;;;8.60;2.20;;;6.30;99.90;;;;;;5072514;28;20231;-59
2022/02/08 04:10:28;;;;;;;4.40;1.90;;;6.40;99.90;;;;;;5072933;28;20630;-59
2022/02/08 04:13:06;;;;;;;5.83;1.90;;;6.40;99.90;;;;;;5073339;28;20244;-58
2022/02/08 04:15:51;;;;;;;6.70;2.73;;;6.40;99.90;;;;;;5072894;28;20213;-58
2022/02/08 04:18:39;;;;;;;9.37;3.13;;;6.40;99.90;;;;;;5072759;28;20262;-59
2022/02/08 04:32:19;;;;;;;4.87;1.77;;;6.70;99.90;;;;;;5072543;28;20207;-59
2022/02/08 04:34:56;;;;;;;6.10;2.07;;;6.70;99.90;;;;;;5072546;28;20223;-59
2022/02/08 04:43:13;;;;;;;6.73;3.27;;;6.70;99.90;;;;;;5073748;28;20201;-59
2022/02/08 04:45:45;;;;;;;5.40;2.03;;;6.70;99.90;;;;;;5072178;28;20204;-58
2022/02/08 04:48:23;;;;;;;9.70;2.10;;;6.70;99.90;;;;;;5072411;28;20228;-59
2022/02/08 04:51:00;;;;;;;6.43;2.00;;;6.70;99.90;;;;;;5072248;28;20205;-59
2022/02/08 04:53:34;;;;;;;6.23;2.60;;;6.60;99.90;;;;;;5072380;28;20208;-59
2022/02/08 04:56:08;;;;;;;7.77;2.10;;;6.60;99.90;;;;;;5071675;28;20261;-59
2022/02/08 04:58:42;;;;;;;5.37;1.90;;;6.60;99.90;;;;;;5072323;28;20265;-59
2022/02/08 05:01:15;;;;;;;5.73;1.97;;;6.40;99.90;;;;;;5072312;28;20215;-59
2022/02/08 05:29:13;;;;;;;7.10;1.90;;;6.20;99.90;;;;;;5071662;28;20251;-58
2022/02/08 05:34:43;;;;;;;6.97;2.40;;;6.10;99.90;;;;;;5071945;28;20688;-58
2022/02/08 05:37:41;;;;;;;7.83;1.83;;;6.30;99.90;;;;;;5071482;28;20220;-58
2022/02/08 05:43:10;;;;;;;7.70;2.30;;;6.50;99.90;;;;;;5071869;28;20338;-60
2022/02/08 05:46:00;;;;;;;8.33;2.20;;;6.60;99.90;;;;;;5074997;28;20691;-58
2022/02/08 05:48:28;;;;;;;6.50;1.97;;;6.60;99.90;;;;;;5075610;28;20232;-58
2022/02/08 05:50:59;;;;;;;7.30;1.93;;;6.70;99.90;;;;;;5075678;28;20609;-58
2022/02/08 05:53:30;;;;;;;7.60;2.50;;;6.80;99.90;;;;;;5075814;28;20205;-58
2022/02/08 05:55:58;;;;;;;5.37;2.10;;;6.80;99.90;;;;;;5075305;28;20300;-58
2022/02/08 05:58:25;;;;;;;10.33;2.67;;;6.80;99.90;;;;;;5075463;28;20208;-58
2022/02/08 06:00:52;;;;;;;7.83;2.30;;;6.80;99.90;;;;;;5075620;28;20220;-58
2022/02/08 06:03:19;;;;;;;5.87;1.97;;;6.80;99.90;;;;;;5075428;28;20215;-58
2022/02/08 06:05:48;;;;;;;9.83;2.10;;;6.80;99.90;;;;;;5075279;28;20205;-58
2022/02/08 06:08:15;;;;;;;8.30;2.60;;;6.90;99.90;;;;;;5075121;28;20246;-58
2022/02/08 06:10:48;;;;;;;6.73;1.90;;;6.90;99.90;;;;;;5075170;28;20212;-59
2022/02/08 06:13:16;;;;;;;10.37;2.50;;;6.90;99.90;;;;;;5075125;28;20208;-58
2022/02/08 06:15:45;;;;;;;5.90;1.50;;;6.90;99.90;;;;;;5075440;28;20212;-59
2022/02/08 06:18:12;;;;;;;7.20;2.23;;;6.90;99.90;;;;;;5074878;28;20201;-58
2022/02/08 06:20:39;;;;;;;7.23;2.20;;;6.80;99.90;;;;;;5075032;28;20209;-59
2022/02/08 06:23:06;;;;;;;7.80;3.00;;;6.80;99.90;;;;;;5074738;28;20664;-58
2022/02/08 06:25:33;;;;;;;6.37;2.37;;;6.80;99.90;;;;;;5074703;28;20668;-58
2022/02/08 06:27:59;;;;;;;9.70;2.73;;;6.70;99.90;;;;;;5074617;28;20236;-58
2022/02/08 06:30:28;;;;;;;9.23;2.93;;;6.70;99.90;;;;;;5075055;28;20205;-59
2022/02/08 06:32:56;;;;;;;8.93;2.57;;;6.70;99.90;;;;;;5075115;28;20212;-58
2022/02/08 06:35:26;;;;;;;6.87;2.50;;;6.70;99.90;;;;;;5074753;28;20270;-61
2022/02/08 06:37:53;;;;;;;6.77;1.77;;;6.70;99.90;;;;;;5074395;28;20734;-60
2022/02/08 06:40:20;;;;;;;7.43;3.03;;;6.60;99.90;;;;;;5074618;28;20718;-59
2022/02/08 06:42:47;;;;;;;6.97;2.87;;;6.70;99.90;;;;;;5074690;28;20209;-59
2022/02/08 06:45:16;;;;;;;6.27;1.90;;;6.60;99.90;;;;;;5074582;28;20205;-59
2022/02/08 06:47:50;;;;;;;7.07;2.50;;;6.60;99.90;;;;;;5074160;28;20233;-58
2022/02/08 06:50:16;;;;;;;8.50;2.80;;;6.60;99.90;;;;;;5074429;28;20205;-57
2022/02/08 06:52:43;;;;;;;5.40;2.07;;;6.50;99.90;;;;;;5074234;28;20220;-58
2022/02/08 06:55:10;;;;;;;7.53;1.77;;;6.50;99.90;;;;;;5073920;28;20205;-58
2022/02/08 06:57:49;;;;;;;7.63;1.80;;;6.60;99.90;;;;;;5073209;28;20237;-58
2022/02/08 07:00:20;;;;;;;5.93;2.27;;;6.70;99.90;;;;;;5074401;28;20209;-58
2022/02/08 07:02:48;;;;;;;9.87;2.50;;;6.80;99.90;;;;;;5074253;28;20211;-58
2022/02/08 07:05:15;;;;;;;4.80;2.10;;;6.90;99.90;;;;;;5073877;28;20209;-58
2022/02/08 07:07:41;;;;;;;6.93;1.97;;;7.00;99.90;;;;;;5073585;28;20323;-58
2022/02/08 07:10:09;;;;;;;6.93;2.20;;;7.00;99.90;;;;;;5073893;28;20640;-58
2022/02/08 07:12:36;;;;;;;7.57;1.97;;;7.10;99.90;;;;;;5073746;28;20663;-58
2022/02/08 07:15:07;;;;;;;8.20;2.30;;;7.20;99.90;;;;;;5073812;28;20215;-58
2022/02/08 07:17:34;;;;;;;11.13;3.70;;;7.20;99.90;;;;;;5073425;28;20286;-58
2022/02/08 07:20:02;;;;;;;7.83;2.30;;;7.20;99.90;;;;;;5073910;28;20209;-58
2022/02/08 07:22:29;;;;;;;9.10;2.30;;;7.30;99.90;;;;;;5073586;28;20208;-58
2022/02/08 07:24:56;;;;;;;7.67;2.33;;;7.40;99.90;;;;;;5073707;28;20205;-58
2022/02/08 07:27:23;;;;;;;41.83;5.10;;;7.30;99.90;;;;;;5073391;28;20278;-58
2022/02/08 07:29:51;;;;;;;25.80;3.63;;;7.30;99.90;;;;;;5073605;28;20741;-58
2022/02/08 07:32:20;;;;;;;9.83;2.23;;;7.30;99.90;;;;;;5073469;28;20205;-58
2022/02/08 07:34:47;;;;;;;7.20;2.27;;;7.40;99.90;;;;;;5073767;28;20266;-58
2022/02/08 07:37:20;;;;;;;29.43;4.07;;;7.30;99.90;;;;;;5073387;28;20315;-58
2022/02/08 07:39:51;;;;;;;25.30;3.90;;;7.40;99.90;;;;;;5073665;28;20266;-58
2022/02/08 07:42:18;;;;;;;6.47;2.50;;;7.50;99.90;;;;;;5073578;28;20240;-58
2022/02/08 07:44:45;;;;;;;12.80;2.30;;;7.60;99.90;;;;;;5073317;28;20205;-58
2022/02/08 07:47:12;;;;;;;11.27;2.50;;;7.70;99.90;;;;;;5073171;28;20320;-58
2022/02/08 07:49:40;;;;;;;3.73;1.73;;;7.80;99.90;;;;;;5073307;28;20235;-58
2022/02/08 07:52:08;;;;;;;8.90;2.07;;;7.90;99.90;;;;;;5072960;28;20318;-58
2022/02/08 07:54:38;;;;;;;8.73;2.50;;;7.90;99.90;;;;;;5073268;28;20463;-58
2022/02/08 07:57:05;;;;;;;7.23;2.00;;;8.10;99.90;;;;;;5072680;28;20670;-58
2022/02/08 07:59:32;;;;;;;9.03;2.23;;;8.10;99.90;;;;;;5073089;28;20205;-58
2022/02/08 08:01:58;;;;;;;9.33;2.00;;;8.00;99.90;;;;;;5073342;28;20212;-58
2022/02/08 08:04:25;;;;;;;4.83;1.77;;;8.10;99.90;;;;;;5072984;28;20209;-58
2022/02/08 08:06:52;;;;;;;10.77;2.30;;;8.20;99.90;;;;;;5072281;28;20229;-58
2022/02/08 08:09:19;;;;;;;17.90;3.53;;;8.10;99.90;;;;;;5072822;28;20232;-58
2022/02/08 08:11:50;;;;;;;25.40;3.47;;;8.30;99.90;;;;;;5072776;28;20209;-58
2022/02/08 08:14:21;;;;;;;16.93;3.50;;;8.30;99.90;;;;;;5072886;28;20208;-58
2022/02/08 08:16:53;;;;;;;12.53;2.40;;;8.50;99.90;;;;;;5072570;28;20607;-58
2022/02/08 08:19:36;;;;;;;7.70;2.50;;;8.60;99.90;;;;;;5072863;28;20245;-58
2022/02/08 08:22:04;;;;;;;6.43;2.60;;;8.70;99.90;;;;;;5072528;28;20217;-58
2022/02/08 08:24:31;;;;;;;7.17;2.43;;;8.80;99.90;;;;;;5072787;28;20208;-58
2022/02/08 08:26:59;;;;;;;43.17;6.47;;;8.90;99.90;;;;;;5072419;28;20251;-58
2022/02/08 08:29:26;;;;;;;44.03;5.57;;;9.10;99.90;;;;;;5072477;28;20228;-58
2022/02/08 08:31:52;;;;;;;10.07;3.30;;;9.10;99.90;;;;;;5072265;28;20584;-58
2022/02/08 08:34:19;;;;;;;8.20;2.17;;;9.20;99.90;;;;;;5073140;28;20208;-58
2022/02/08 08:36:47;;;;;;;7.17;2.33;;;9.30;99.90;;;;;;5071951;28;20660;-58
2022/02/08 08:39:14;;;;;;;30.07;4.70;;;9.50;99.90;;;;;;5072517;28;20209;-58
2022/02/08 08:41:47;;;;;;;22.70;4.10;;;9.60;99.90;;;;;;5072360;28;20216;-58
2022/02/08 08:49:54;;;;;;;13.77;3.00;;;9.80;99.90;;;;;;5072061;28;20231;-58
2022/02/08 08:52:30;;;;;;;7.77;2.43;;;9.60;99.90;;;;;;5072228;28;20209;-58
2022/02/08 08:54:57;;;;;;;7.37;2.30;;;9.50;99.90;;;;;;5072207;28;20212;-58
2022/02/08 08:57:26;;;;;;;13.30;2.50;;;9.50;99.90;;;;;;5106348;22;20239;-60
2022/02/08 08:59:54;;;;;;;22.23;3.63;;;9.60;99.90;;;;;;5092442;28;20188;-60
2022/02/08 09:02:21;;;;;;;10.10;3.00;;;9.70;99.90;;;;;;5092521;28;20208;-60
2022/02/08 09:04:48;;;;;;;12.97;2.90;;;9.60;99.90;;;;;;5092611;28;20208;-60
2022/02/08 09:07:16;;;;;;;17.60;3.53;;;9.70;99.90;;;;;;5092260;28;20227;-60
2022/02/08 09:09:46;;;;;;;9.20;2.53;;;9.60;99.90;;;;;;5092306;28;20782;-60
2022/02/08 09:15:16;;;;;;;10.37;2.60;;;9.60;99.90;;;;;;5089589;28;20234;-61
2022/02/08 09:28:57;;;;;;;4.77;2.40;;;9.70;99.90;;;;;;5091287;28;20254;-60
2022/02/08 09:31:25;;;;;;;7.90;2.23;;;9.80;99.90;;;;;;5092132;28;20204;-60
2022/02/08 09:33:52;;;;;;;6.87;2.07;;;9.90;99.90;;;;;;5092114;28;20200;-60
2022/02/08 09:36:24;;;;;;;80.73;8.40;;;10.10;99.90;;;;;;5092013;28;20278;-60
2022/02/08 09:38:51;;;;;;;12.83;2.93;;;10.10;99.90;;;;;;5092525;28;20204;-60
2022/02/08 09:41:19;;;;;;;5.80;1.97;;;10.30;99.90;;;;;;5092051;28;20219;-60
2022/02/08 09:43:47;;;;;;;9.37;2.27;;;10.50;99.90;;;;;;5092154;28;20210;-61
2022/02/08 09:46:14;;;;;;;8.20;2.50;;;10.80;99.90;;;;;;5091841;28;20200;-60
2022/02/08 09:48:46;;;;;;;7.20;2.23;;;11.20;99.90;;;;;;5091805;28;20228;-60
2022/02/08 09:51:13;;;;;;;9.63;2.33;;;11.50;99.90;;;;;;5091997;28;20661;-61
2022/02/08 09:53:42;;;;;;;6.53;2.30;;;11.80;99.90;;;;;;5092163;28;20602;-60
2022/02/08 09:56:10;;;;;;;5.70;1.40;;;11.80;99.90;;;;;;5092228;28;20250;-60
2022/02/08 09:58:37;;;;;;;9.47;2.70;;;11.80;99.90;;;;;;5092754;28;20200;-58
2022/02/08 10:01:09;;;;;;;13.17;2.10;;;11.80;99.90;;;;;;5093826;28;20698;-61
2022/02/08 10:03:38;;;;;;;31.97;4.67;;;11.60;99.90;;;;;;5093195;28;20208;-61
2022/02/08 10:06:06;;;;;;;6.10;2.03;;;11.50;99.90;;;;;;5092832;28;20235;-61
2022/02/08 10:08:32;;;;;;;7.57;2.43;;;11.50;99.90;;;;;;5092130;28;20251;-61
2022/02/08 10:10:59;;;;;;;10.10;3.63;;;11.50;99.90;;;;;;5092751;28;20235;-60
2022/02/08 10:21:50;;;;;;;8.57;2.83;;;11.90;99.90;;;;;;5029849;28;20209;-61
2022/02/08 10:24:18;;;;;;;8.40;2.50;;;12.00;99.90;;;;;;5077871;28;20636;-61
2022/02/08 10:26:58;;;;;;;5.97;2.40;;;12.10;99.90;;;;;;5092320;28;20221;-61
2022/02/08 10:29:36;;;;;;;8.87;2.50;;;12.30;99.90;;;;;;5092459;28;20216;-61
2022/02/08 10:32:32;;;;;;;8.97;2.33;;;12.70;99.90;;;;;;5096032;28;20287;-61
2022/02/08 10:37:47;;;;;;;8.27;2.97;;;13.40;99.80;;;;;;5095922;28;20334;-61
2022/02/08 10:40:17;;;;;;;7.30;2.20;;;13.70;99.50;;;;;;5096515;28;20220;-61
2022/02/08 10:42:51;;;;;;;8.00;2.57;;;13.60;99.70;;;;;;5095723;28;20208;-62
2022/02/08 10:45:22;;;;;;;6.43;2.33;;;13.70;99.30;;;;;;5095649;28;20218;-60
2022/02/08 10:47:54;;;;;;;9.50;2.60;;;13.70;99.00;;;;;;5095163;28;20232;-59
2022/02/08 10:50:22;;;;;;;6.80;2.53;;;13.70;99.10;;;;;;5094965;28;20224;-59
2022/02/08 10:52:50;;;;;;;8.30;2.10;;;13.70;99.20;;;;;;5095359;28;20212;-60
2022/02/08 10:55:27;;;;;;;7.77;2.33;;;13.80;99.10;;;;;;5094813;28;20230;-60
2022/02/08 10:58:04;;;;;;;6.90;2.33;;;14.00;98.90;;;;;;5094627;28;20236;-60
2022/02/08 11:00:36;;;;;;;9.90;2.47;;;14.40;98.90;;;;;;5094453;28;20768;-60
2022/02/08 11:03:07;;;;;;;9.70;2.17;;;14.80;98.30;;;;;;5094797;28;20646;-60
2022/02/08 11:05:44;;;;;;;6.10;1.80;;;15.10;98.00;;;;;;5094648;28;20268;-60
2022/02/08 11:08:23;;;;;;;8.33;2.63;;;15.20;97.50;;;;;;5094534;28;20234;-60
2022/02/08 11:14:12;;;;;;;5.50;2.50;;;15.20;97.50;;;;;;5057475;28;20215;-60
2022/02/08 11:17:06;;;;;;;9.67;2.50;;;15.20;97.70;;;;;;5093825;28;20534;-60
2022/02/08 11:19:46;;;;;;;5.00;2.67;;;15.00;98.10;;;;;;5093942;28;20211;-60
2022/02/08 11:22:25;;;;;;;5.47;2.13;;;14.80;98.60;;;;;;5094412;28;20236;-60
2022/02/08 11:25:01;;;;;;;5.87;2.13;;;14.70;98.70;;;;;;5094169;28;20667;-60
2022/02/08 11:27:37;;;;;;;8.87;2.50;;;14.70;98.80;;;;;;5094102;28;20226;-60
2022/02/08 11:30:11;;;;;;;9.53;2.70;;;14.80;98.90;;;;;;5094283;28;20284;-60
2022/02/08 11:33:01;;;;;;;6.50;1.90;;;14.80;98.90;;;;;;5094229;28;20204;-60
2022/02/08 11:44:29;;;;;;;13.20;2.07;;;14.50;99.50;;;;;;5093963;28;20322;-60
2022/02/08 11:50:19;;;;;;;6.70;1.97;;;14.50;99.40;;;;;;5057255;28;20851;-60
2022/02/08 11:53:07;;;;;;;7.13;1.90;;;14.50;99.50;;;;;;5093553;28;20205;-61
2022/02/08 11:56:02;;;;;;;8.37;2.40;;;14.50;99.70;;;;;;5093745;28;20204;-60
2022/02/08 11:58:46;;;;;;;10.57;2.57;;;14.60;99.90;;;;;;5093367;28;20243;-60
2022/02/08 12:01:17;;;;;;;6.17;2.57;;;14.90;99.70;;;;;;5093705;28;20215;-60
2022/02/08 12:09:25;;;;;;;7.63;2.03;;;15.40;99.50;;;;;;5067052;28;20709;-60
2022/02/08 12:12:15;;;;;;;6.93;2.37;;;15.40;99.40;;;;;;5093766;28;20204;-60
2022/02/08 12:31:41;;;;;;;5.50;1.60;;;15.20;99.90;;;;;;5062150;28;20243;-60
2022/02/08 12:34:26;;;;;;;4.97;1.20;;;15.10;99.90;;;;;;5093553;28;20327;-61
2022/02/08 12:48:31;;;;;;;4.50;1.80;;;15.00;99.90;;;;;;5093092;28;20287;-61
2022/02/08 12:51:58;;;;;;;7.95;1.60;;;14.40;99.90;;;;;;5079034;28;20432;-59
2022/02/08 12:57:07;;;;;;;2.70;1.17;;;14.70;99.90;;;;;;5071086;28;20290;-63
2022/02/08 13:02:31;;;;;;;7.33;1.50;;;15.00;99.90;;;;;;5071854;28;20285;-64
2022/02/08 13:05:50;;;;;;;3.93;1.30;;;14.80;99.90;;;;;;5073273;28;20668;-65
2022/02/08 14:05:03;;;;;;;6.67;2.50;;;13.70;99.90;;;;;;5073702;28;20737;-64
2022/02/08 14:07:07;;;;;;;4.13;2.20;;;13.70;99.90;;;;;;5075951;28;20252;-63
2022/02/08 14:10:05;;;;;;;3.40;1.67;;;13.70;99.90;;;;;;5076788;28;20312;-63
2022/02/08 14:15:43;;;;;;;4.07;1.50;;;13.60;99.90;;;;;;5077285;28;20207;-63
2022/02/08 14:18:40;;;;;;;5.20;2.63;;;13.60;99.90;;;;;;5076671;28;20224;-63
2022/02/08 14:21:12;;;;;;;3.27;1.30;;;13.70;99.90;;;;;;5076811;28;20695;-63
2022/02/08 14:32:04;;;;;;;5.50;1.30;;;13.60;99.90;;;;;;5075527;28;20205;-63
2022/02/08 14:34:58;;;;;;;3.07;1.20;;;13.50;99.90;;;;;;5075533;28;20698;-63
2022/02/08 14:48:54;;;;;;;2.43;1.10;;;13.50;99.90;;;;;;5075130;28;20231;-63
2022/02/08 15:10:34;;;;;;;2.03;0.97;;;13.20;99.90;;;;;;5073537;28;20240;-62
2022/02/08 15:13:02;;;;;;;2.83;1.00;;;13.10;99.90;;;;;;5074081;28;20270;-65
2022/02/08 15:15:34;;;;;;;3.20;1.50;;;13.10;99.90;;;;;;5073905;28;20232;-64
2022/02/08 15:18:02;;;;;;;6.50;1.83;;;13.00;99.90;;;;;;5072399;28;20224;-64
2022/02/08 15:20:29;;;;;;;6.13;2.00;;;13.00;99.90;;;;;;5074368;28;20208;-63
2022/02/08 15:22:57;;;;;;;4.47;1.40;;;13.10;99.90;;;;;;5074241;28;20590;-64
2022/02/08 15:25:27;;;;;;;4.00;1.03;;;13.10;99.90;;;;;;5074190;28;20724;-64
2022/02/08 15:28:00;;;;;;;4.03;1.30;;;13.10;99.90;;;;;;5073889;28;20233;-64
2022/02/08 15:30:26;;;;;;;2.60;1.00;;;13.10;99.90;;;;;;5073567;28;20714;-63
2022/02/08 15:32:53;;;;;;;4.63;1.40;;;13.00;99.90;;;;;;5074353;28;20211;-63
2022/02/08 15:35:22;;;;;;;3.47;1.20;;;13.00;99.90;;;;;;5073989;28;20208;-65
2022/02/08 15:37:50;;;;;;;3.40;1.30;;;13.00;99.90;;;;;;5074240;28;20225;-65
2022/02/08 15:40:19;;;;;;;4.83;1.43;;;13.00;99.90;;;;;;5074374;28;20208;-63
2022/02/08 15:42:46;;;;;;;2.00;1.00;;;12.90;99.90;;;;;;5074539;28;20205;-65
2022/02/08 15:45:19;;;;;;;3.73;1.67;;;12.90;99.90;;;;;;5074075;28;20687;-63
2022/02/08 15:47:46;;;;;;;2.33;1.20;;;12.90;99.90;;;;;;5074611;28;20259;-64
2022/02/08 15:50:18;;;;;;;4.73;1.40;;;12.90;99.90;;;;;;5073187;28;20312;-63
2022/02/08 15:53:08;;;;;;;4.87;1.90;;;12.80;99.90;;;;;;5073869;28;20212;-64
2022/02/08 15:55:43;;;;;;;4.10;1.30;;;12.70;99.90;;;;;;5073471;28;20294;-64
2022/02/08 15:58:22;;;;;;;3.60;1.20;;;12.70;99.90;;;;;;5073437;28;20236;-63
2022/02/08 16:01:08;;;;;;;2.07;1.17;;;12.70;99.90;;;;;;5074332;28;20227;-64
2022/02/08 16:09:27;;;;;;;3.07;1.20;;;12.40;99.90;;;;;;5031179;28;20236;-64
2022/02/08 16:12:07;;;;;;;3.87;1.97;;;12.40;99.90;;;;;;5056604;28;20274;-64
2022/02/08 16:14:45;;;;;;;3.43;1.60;;;12.30;99.90;;;;;;5073111;28;20208;-63
2022/02/08 16:17:30;;;;;;;3.40;1.37;;;12.20;99.90;;;;;;5072491;28;20224;-63
2022/02/08 16:20:09;;;;;;;3.50;2.23;;;12.20;99.90;;;;;;5072957;28;20322;-63
2022/02/08 16:25:33;;;;;;;3.60;2.30;;;11.90;99.90;;;;;;5072460;28;20273;-63
2022/02/08 16:28:16;;;;;;;4.77;1.63;;;11.80;99.90;;;;;;5072205;28;20232;-64
2022/02/08 16:31:08;;;;;;;13.53;7.47;;;11.70;99.90;;;;;;5072340;28;20731;-64
2022/02/08 16:50:41;;;;;;;3.23;1.10;;;11.20;99.90;;;;;;5050920;28;20232;-64
2022/02/08 16:53:16;;;;;;;4.47;1.37;;;11.20;99.90;;;;;;5072022;28;20215;-63
2022/02/08 16:55:52;;;;;;;6.27;3.50;;;11.10;99.90;;;;;;5072149;28;20284;-64
2022/02/08 16:58:29;;;;;;;6.30;2.03;;;11.00;99.90;;;;;;5071822;28;20237;-64
2022/02/08 17:00:59;;;;;;;5.50;1.77;;;11.10;99.90;;;;;;5071744;28;20207;-64
2022/02/08 17:03:30;;;;;;;4.77;1.57;;;11.10;99.90;;;;;;5071919;28;20262;-64
2022/02/08 17:05:57;;;;;;;2.73;1.23;;;11.20;99.90;;;;;;5072157;28;20213;-64
2022/02/08 17:08:25;;;;;;;6.37;2.00;;;11.20;99.90;;;;;;5071651;28;20895;-64
2022/02/08 17:10:56;;;;;;;3.37;1.90;;;11.20;99.90;;;;;;5072001;28;20225;-63
2022/02/08 17:13:39;;;;;;;7.40;2.37;;;11.20;99.90;;;;;;5071840;28;20204;-64
2022/02/08 17:16:14;;;;;;;3.63;1.40;;;11.20;99.90;;;;;;5072016;28;20586;-64
2022/02/08 17:46:15;;;;;;;4.23;2.10;;;11.30;99.90;;;;;;5055103;28;20199;-64
2022/02/08 17:48:42;;;;;;;8.13;3.17;;;11.30;99.90;;;;;;5075730;28;20224;-64
2022/02/08 17:51:09;;;;;;;6.27;1.70;;;11.40;99.90;;;;;;5075680;28;20720;-63
2022/02/08 17:53:35;;;;;;;5.50;1.93;;;11.40;99.90;;;;;;5075837;28;20677;-63
2022/02/08 17:56:03;;;;;;;4.60;1.97;;;11.40;99.90;;;;;;5076113;28;20213;-62
2022/02/08 17:58:30;;;;;;;6.73;2.27;;;11.40;99.90;;;;;;5075854;28;20692;-62
2022/02/08 18:00:57;;;;;;;4.47;1.90;;;11.40;99.90;;;;;;5076000;28;20205;-62
2022/02/08 18:03:25;;;;;;;6.90;2.33;;;11.40;99.90;;;;;;5075868;28;20250;-62
2022/02/08 18:05:52;;;;;;;7.43;2.20;;;11.50;99.90;;;;;;5075801;28;20208;-62
2022/02/08 18:08:20;;;;;;;6.87;2.20;;;11.50;99.90;;;;;;5075235;28;20225;-62
2022/02/08 18:10:54;;;;;;;5.73;2.20;;;11.50;99.90;;;;;;5075097;28;20221;-63
2022/02/08 18:13:20;;;;;;;6.23;2.33;;;11.40;99.90;;;;;;5075324;28;20205;-63
2022/02/08 18:15:47;;;;;;;6.43;2.03;;;11.40;99.90;;;;;;5075090;28;20201;-63
2022/02/08 18:18:22;;;;;;;7.13;3.70;;;11.40;99.90;;;;;;5074785;28;20229;-63